Time;durP1;ratioP1;P1;durP2;ratioP2;P2;SDS_P1;SDS_P2;PMS_P1;PMS_P2;Temp;Humidity;BMP_temperature;BMP_pressure;BME280_temperature;BME280_humidity;BME280_pressure;Samples;Min_cycle;Max_cycle;Signal;HPM_P1;HPM_P2
2022/05/22 00:02:09;;;;;;;9.18;4.00;;;;;;;;;;5037161;28;20044;-86
2022/05/22 00:04:35;;;;;;;6.13;3.45;;;;;;;;;;5054040;28;20499;-86
2022/05/22 00:07:01;;;;;;;8.50;3.05;;;;;;;;;;5037775;28;20044;-86
2022/05/22 00:09:30;;;;;;;8.02;3.80;;;;;;;;;;5038002;28;20052;-87
2022/05/22 00:11:57;;;;;;;15.05;4.38;;;;;;;;;;5039963;28;20044;-86
2022/05/22 00:14:25;;;;;;;9.05;4.03;;;;;;;;;;5057239;28;20048;-86
2022/05/22 00:16:52;;;;;;;10.35;3.55;;;;;;;;;;5047663;28;20484;-87
2022/05/22 00:19:22;;;;;;;9.80;4.90;;;;;;;;;;5038797;28;20377;-86
2022/05/22 00:21:49;;;;;;;11.65;4.20;;;;;;;;;;5038238;28;20181;-86
2022/05/22 00:24:16;;;;;;;10.95;3.80;;;;;;;;;;5036755;28;20502;-86
2022/05/22 00:26:42;;;;;;;6.28;3.40;;;;;;;;;;5053660;28;20047;-86
2022/05/22 00:29:08;;;;;;;10.27;3.70;;;;;;;;;;5036671;28;20036;-86
2022/05/22 00:31:34;;;;;;;11.52;4.40;;;;;;;;;;5036733;28;20040;-87
2022/05/22 00:34:00;;;;;;;11.50;4.25;;;;;;;;;;5036936;28;20076;-86
2022/05/22 00:36:26;;;;;;;9.68;3.75;;;;;;;;;;5036753;28;20041;-86
2022/05/22 00:38:52;;;;;;;5.82;3.70;;;;;;;;;;5053718;28;20066;-86
2022/05/22 00:41:19;;;;;;;9.38;3.30;;;;;;;;;;5036600;28;20381;-86
2022/05/22 00:43:45;;;;;;;5.28;3.67;;;;;;;;;;5040051;28;20052;-85
2022/05/22 00:46:12;;;;;;;6.47;2.78;;;;;;;;;;5040220;28;20091;-85
2022/05/22 00:48:40;;;;;;;5.25;3.05;;;;;;;;;;5040108;28;20429;-85
2022/05/22 00:51:11;;;;;;;5.28;2.75;;;;;;;;;;5040069;28;20033;-86
2022/05/22 00:53:38;;;;;;;4.95;3.33;;;;;;;;;;5040685;28;20448;-85
2022/05/22 00:56:06;;;;;;;5.55;3.08;;;;;;;;;;5040601;28;20044;-85
2022/05/22 00:58:33;;;;;;;5.78;3.17;;;;;;;;;;5040457;28;20072;-86
2022/05/22 01:00:59;;;;;;;4.90;3.05;;;;;;;;;;5039885;28;20040;-86
2022/05/22 01:03:26;;;;;;;5.72;3.75;;;;;;;;;;5040133;28;20048;-86
2022/05/22 01:05:53;;;;;;;7.80;4.10;;;;;;;;;;5039868;28;20044;-84
2022/05/22 01:08:19;;;;;;;8.48;3.83;;;;;;;;;;5056146;28;20117;-85
2022/05/22 01:10:48;;;;;;;7.13;4.13;;;;;;;;;;5039720;28;20099;-84
2022/05/22 01:13:17;;;;;;;7.13;4.10;;;;;;;;;;5056388;28;20048;-84
2022/05/22 01:15:43;;;;;;;7.05;2.95;;;;;;;;;;5039564;28;20033;-85
2022/05/22 01:18:10;;;;;;;4.30;2.80;;;;;;;;;;5039423;28;20496;-84
2022/05/22 01:20:36;;;;;;;9.55;2.70;;;;;;;;;;5039457;28;20415;-83
2022/05/22 01:23:02;;;;;;;6.18;3.17;;;;;;;;;;5039804;28;20136;-84
2022/05/22 01:25:28;;;;;;;7.70;2.97;;;;;;;;;;5056567;28;20474;-85
2022/05/22 01:27:54;;;;;;;3.70;2.53;;;;;;;;;;5056112;28;20048;-83
2022/05/22 01:30:22;;;;;;;4.78;2.35;;;;;;;;;;5023305;28;20090;-85
2022/05/22 01:32:48;;;;;;;4.07;2.10;;;;;;;;;;5039262;28;20036;-83
2022/05/22 01:35:16;;;;;;;3.75;2.35;;;;;;;;;;5039421;28;20037;-86
2022/05/22 01:37:43;;;;;;;3.28;1.70;;;;;;;;;;5039945;28;20094;-88
2022/05/22 01:40:09;;;;;;;6.90;1.92;;;;;;;;;;5042687;28;20557;-86
2022/05/22 01:42:36;;;;;;;4.90;2.28;;;;;;;;;;5040029;28;20098;-86
2022/05/22 01:45:03;;;;;;;8.90;3.05;;;;;;;;;;5039133;28;20076;-84
2022/05/22 01:47:32;;;;;;;6.88;3.45;;;;;;;;;;5039240;28;20124;-85
2022/05/22 01:49:58;;;;;;;3.55;2.50;;;;;;;;;;5055692;28;20049;-87
2022/05/22 01:52:23;;;;;;;7.07;3.13;;;;;;;;;;5039518;28;20094;-85
2022/05/22 01:54:49;;;;;;;6.32;3.35;;;;;;;;;;5038745;28;20047;-82
2022/05/22 01:57:15;;;;;;;6.60;3.38;;;;;;;;;;5055639;28;20044;-84
2022/05/22 01:59:41;;;;;;;8.77;4.45;;;;;;;;;;5038874;28;20047;-86
2022/05/22 02:02:08;;;;;;;10.32;4.65;;;;;;;;;;5039035;28;20063;-87
2022/05/22 02:04:34;;;;;;;9.30;4.25;;;;;;;;;;5038903;28;20036;-84
2022/05/22 02:09:44;;;;;;;6.78;3.60;;;;;;;;;;5055096;28;20059;-85
2022/05/22 02:12:10;;;;;;;4.35;2.67;;;;;;;;;;5038840;28;20048;-87
2022/05/22 02:14:36;;;;;;;6.32;3.05;;;;;;;;;;5055485;28;20041;-84
2022/05/22 02:17:02;;;;;;;4.13;3.50;;;;;;;;;;5038672;28;20079;-87
2022/05/22 02:19:28;;;;;;;4.32;2.92;;;;;;;;;;5055451;28;20036;-88
2022/05/22 02:21:54;;;;;;;4.53;2.90;;;;;;;;;;5038752;28;20041;-86
2022/05/22 02:24:20;;;;;;;4.80;2.75;;;;;;;;;;5054835;28;20043;-83
2022/05/22 02:26:46;;;;;;;7.72;2.97;;;;;;;;;;5038437;28;20047;-84
2022/05/22 02:29:12;;;;;;;5.43;3.10;;;;;;;;;;5038730;28;20093;-84
2022/05/22 02:31:40;;;;;;;6.65;3.70;;;;;;;;;;5038171;28;20040;-85
2022/05/22 02:34:06;;;;;;;11.18;4.80;;;;;;;;;;5038257;28;20041;-84
2022/05/22 02:36:32;;;;;;;11.93;4.22;;;;;;;;;;5038201;28;20090;-84
2022/05/22 02:38:58;;;;;;;12.63;3.70;;;;;;;;;;5038276;28;20048;-84
2022/05/22 02:41:25;;;;;;;7.57;3.30;;;;;;;;;;5038407;28;20044;-84
2022/05/22 02:43:51;;;;;;;8.25;3.33;;;;;;;;;;5038055;28;20047;-84
2022/05/22 02:46:18;;;;;;;9.57;3.83;;;;;;;;;;5038170;28;20511;-85
2022/05/22 02:48:44;;;;;;;8.55;3.28;;;;;;;;;;5054448;28;20041;-84
2022/05/22 02:51:12;;;;;;;7.25;3.42;;;;;;;;;;5037881;28;20044;-84
2022/05/22 02:53:38;;;;;;;4.22;2.95;;;;;;;;;;5037747;28;20047;-84
2022/05/22 02:56:08;;;;;;;3.22;2.40;;;;;;;;;;5037806;28;20373;-84
2022/05/22 02:58:34;;;;;;;10.77;3.97;;;;;;;;;;5037672;28;20079;-84
2022/05/22 03:01:00;;;;;;;6.45;3.47;;;;;;;;;;5037537;28;20492;-84
2022/05/22 03:03:26;;;;;;;4.97;3.20;;;;;;;;;;5037524;28;20071;-84
2022/05/22 03:08:36;;;;;;;6.70;3.67;;;;;;;;;;5053994;28;20052;-84
2022/05/22 03:11:06;;;;;;;5.97;3.20;;;;;;;;;;5037513;28;20386;-84
2022/05/22 03:13:32;;;;;;;4.57;2.70;;;;;;;;;;5037437;28;20037;-84
2022/05/22 03:15:58;;;;;;;5.63;3.50;;;;;;;;;;5037549;28;20507;-84
2022/05/22 03:18:24;;;;;;;5.80;3.13;;;;;;;;;;5054124;28;20043;-84
2022/05/22 03:20:50;;;;;;;6.78;3.25;;;;;;;;;;5053968;28;20033;-83
2022/05/22 03:23:16;;;;;;;8.40;2.75;;;;;;;;;;5037594;28;20036;-82
2022/05/22 03:25:43;;;;;;;5.80;2.50;;;;;;;;;;5037221;28;20040;-84
2022/05/22 03:28:09;;;;;;;8.93;3.05;;;;;;;;;;5037141;28;20400;-84
2022/05/22 03:30:35;;;;;;;3.42;2.42;;;;;;;;;;5037254;28;20040;-83
2022/05/22 03:33:01;;;;;;;3.88;2.55;;;;;;;;;;5037248;28;20044;-85
2022/05/22 03:35:27;;;;;;;3.60;2.80;;;;;;;;;;5037368;28;20040;-83
2022/05/22 03:37:52;;;;;;;5.78;2.75;;;;;;;;;;5037696;28;20505;-84
2022/05/22 03:40:18;;;;;;;3.67;2.50;;;;;;;;;;5037461;28;20055;-84
2022/05/22 03:42:44;;;;;;;4.53;2.50;;;;;;;;;;5037099;28;20040;-83
2022/05/22 03:45:10;;;;;;;2.88;2.38;;;;;;;;;;5037035;28;20549;-84
2022/05/22 03:47:38;;;;;;;3.97;2.53;;;;;;;;;;5053970;28;20045;-83
2022/05/22 03:50:05;;;;;;;3.40;2.45;;;;;;;;;;5036968;28;20043;-84
2022/05/22 03:52:34;;;;;;;3.75;2.20;;;;;;;;;;5036979;28;20055;-84
2022/05/22 03:55:00;;;;;;;4.28;2.60;;;;;;;;;;5037150;28;20033;-83
2022/05/22 03:57:27;;;;;;;3.22;2.20;;;;;;;;;;5037033;28;20036;-83
2022/05/22 03:59:53;;;;;;;4.57;2.50;;;;;;;;;;5037171;28;20048;-82
2022/05/22 04:02:19;;;;;;;5.50;2.58;;;;;;;;;;5036904;28;20043;-83
2022/05/22 04:04:45;;;;;;;4.07;2.88;;;;;;;;;;5037041;28;20404;-82
2022/05/22 04:07:12;;;;;;;5.80;3.25;;;;;;;;;;5036727;28;20041;-83
2022/05/22 04:09:38;;;;;;;4.82;2.85;;;;;;;;;;5036784;28;20496;-84
2022/05/22 04:12:07;;;;;;;6.43;3.13;;;;;;;;;;5036820;28;20040;-84
2022/05/22 04:14:33;;;;;;;4.28;2.72;;;;;;;;;;5036879;28;20404;-84
2022/05/22 04:16:59;;;;;;;3.78;2.70;;;;;;;;;;5037854;28;20044;-83
2022/05/22 04:19:25;;;;;;;6.03;2.78;;;;;;;;;;5041044;28;20045;-83
2022/05/22 04:21:52;;;;;;;3.53;2.65;;;;;;;;;;5041020;28;20127;-83
2022/05/22 04:27:06;;;;;;;4.38;2.53;;;;;;;;;;5057329;28;20036;-86
2022/05/22 04:29:33;;;;;;;4.40;2.85;;;;;;;;;;5040414;28;20043;-86
2022/05/22 04:31:59;;;;;;;6.35;3.47;;;;;;;;;;5040615;28;20431;-86
2022/05/22 04:34:25;;;;;;;5.40;2.92;;;;;;;;;;5040855;28;20416;-86
2022/05/22 04:36:51;;;;;;;7.97;3.33;;;;;;;;;;5040426;28;20037;-85
2022/05/22 04:39:17;;;;;;;7.32;3.70;;;;;;;;;;5040598;28;20063;-85
2022/05/22 04:41:43;;;;;;;5.95;3.65;;;;;;;;;;5040554;28;20040;-85
2022/05/22 04:44:09;;;;;;;5.80;3.30;;;;;;;;;;5040178;28;20087;-85
2022/05/22 04:46:35;;;;;;;9.77;3.85;;;;;;;;;;5040188;28;20385;-85
2022/05/22 04:49:01;;;;;;;6.00;3.72;;;;;;;;;;5040396;28;20043;-86
2022/05/22 04:51:27;;;;;;;8.70;4.35;;;;;;;;;;5040159;28;20036;-85
2022/05/22 04:53:53;;;;;;;12.30;3.85;;;;;;;;;;5040253;28;20056;-85
2022/05/22 04:56:20;;;;;;;6.75;3.55;;;;;;;;;;5039935;28;20048;-85
2022/05/22 04:58:46;;;;;;;7.78;4.05;;;;;;;;;;5040052;28;20136;-84
2022/05/22 05:01:13;;;;;;;5.57;3.10;;;;;;;;;;5039993;28;20045;-84
2022/05/22 05:03:39;;;;;;;4.22;3.42;;;;;;;;;;5040103;28;20074;-84
2022/05/22 05:06:05;;;;;;;7.35;3.15;;;;;;;;;;5039744;28;20045;-85
2022/05/22 05:08:31;;;;;;;7.13;3.13;;;;;;;;;;5039929;28;20449;-85
2022/05/22 05:10:58;;;;;;;5.80;3.20;;;;;;;;;;5039899;28;20105;-85
2022/05/22 05:13:25;;;;;;;9.52;3.70;;;;;;;;;;5039860;28;20040;-85
2022/05/22 05:16:01;;;;;;;6.78;2.97;;;;;;;;;;5039657;28;20386;-88
2022/05/22 05:18:28;;;;;;;4.80;2.97;;;;;;;;;;5056257;28;20032;-86
2022/05/22 05:20:54;;;;;;;7.20;3.28;;;;;;;;;;5039654;28;20040;-87
2022/05/22 05:23:20;;;;;;;6.18;3.47;;;;;;;;;;5039784;28;20442;-89
2022/05/22 05:25:46;;;;;;;4.55;3.17;;;;;;;;;;5039617;28;20128;-85
2022/05/22 05:28:12;;;;;;;6.30;3.70;;;;;;;;;;5039056;28;20040;-89
2022/05/22 05:30:38;;;;;;;6.72;3.65;;;;;;;;;;5055820;28;20041;-87
2022/05/22 05:33:04;;;;;;;7.03;4.35;;;;;;;;;;5040048;28;20127;-85
2022/05/22 05:35:31;;;;;;;8.60;4.05;;;;;;;;;;5056726;28;20472;-90
2022/05/22 05:37:59;;;;;;;10.45;4.32;;;;;;;;;;5041101;28;20530;-95
2022/05/22 05:40:25;;;;;;;7.22;4.07;;;;;;;;;;5057499;28;20044;-91
2022/05/22 05:42:52;;;;;;;10.10;4.57;;;;;;;;;;5040991;28;20090;-88
2022/05/22 05:45:18;;;;;;;9.52;4.82;;;;;;;;;;5040300;28;20403;-89
2022/05/22 05:47:48;;;;;;;9.90;4.70;;;;;;;;;;5039747;28;20040;-85
2022/05/22 05:50:15;;;;;;;12.68;4.53;;;;;;;;;;5040558;28;20108;-87
2022/05/22 05:52:42;;;;;;;12.65;5.20;;;;;;;;;;5057610;28;20076;-93
2022/05/22 05:55:09;;;;;;;11.13;5.10;;;;;;;;;;5025793;28;20047;-90
2022/05/22 05:57:35;;;;;;;9.93;4.22;;;;;;;;;;5040944;28;20437;-90
2022/05/22 06:00:01;;;;;;;8.20;4.22;;;;;;;;;;5040107;28;20037;-91
2022/05/22 06:02:27;;;;;;;8.20;4.05;;;;;;;;;;5039663;28;20134;-86
2022/05/22 06:04:53;;;;;;;10.63;5.22;;;;;;;;;;5055609;28;20565;-84
2022/05/22 06:07:20;;;;;;;10.48;5.53;;;;;;;;;;5038936;28;20072;-86
2022/05/22 06:09:46;;;;;;;10.52;5.35;;;;;;;;;;5038712;28;20085;-84
2022/05/22 06:12:12;;;;;;;12.43;5.10;;;;;;;;;;5056427;28;20037;-95
2022/05/22 06:14:39;;;;;;;12.98;6.55;;;;;;;;;;5039020;28;20040;-87
2022/05/22 06:17:05;;;;;;;13.77;6.45;;;;;;;;;;5039706;28;20043;-92
2022/05/22 06:22:16;;;;;;;14.55;6.60;;;;;;;;;;5056986;28;20052;-91
2022/05/22 06:24:43;;;;;;;14.77;6.43;;;;;;;;;;5040666;28;20040;-88
2022/05/22 06:27:09;;;;;;;13.65;5.80;;;;;;;;;;5039829;28;20419;-89
2022/05/22 06:29:35;;;;;;;11.00;5.43;;;;;;;;;;5039631;28;20054;-92
2022/05/22 06:32:01;;;;;;;12.80;5.53;;;;;;;;;;5039467;28;20411;-85
2022/05/22 06:34:27;;;;;;;12.10;6.15;;;;;;;;;;5038667;28;20084;-85
2022/05/22 06:36:53;;;;;;;9.75;5.05;;;;;;;;;;5039606;28;20049;-90
2022/05/22 06:42:05;;;;;;;12.20;5.63;;;;;;;;;;5056162;28;20357;-88
2022/05/22 06:44:31;;;;;;;11.52;5.07;;;;;;;;;;5056351;28;20044;-89
2022/05/22 06:46:57;;;;;;;12.13;4.93;;;;;;;;;;5039690;28;20370;-86
2022/05/22 06:49:23;;;;;;;11.30;5.00;;;;;;;;;;5038718;28;20079;-87
2022/05/22 06:51:50;;;;;;;11.73;5.28;;;;;;;;;;5038282;28;20045;-88
2022/05/22 06:54:16;;;;;;;8.80;4.60;;;;;;;;;;5039219;28;20066;-93
2022/05/22 06:56:43;;;;;;;13.05;5.18;;;;;;;;;;5038925;28;20032;-89
2022/05/22 06:59:09;;;;;;;10.77;5.03;;;;;;;;;;5038177;28;20503;-86
2022/05/22 07:01:34;;;;;;;9.77;4.05;;;;;;;;;;5037903;28;20041;-90
2022/05/22 07:04:00;;;;;;;9.40;4.57;;;;;;;;;;5038463;28;20554;-85
2022/05/22 07:06:26;;;;;;;8.60;3.70;;;;;;;;;;5038101;28;20131;-89
2022/05/22 07:08:52;;;;;;;10.80;3.45;;;;;;;;;;5037416;28;20110;-91
2022/05/22 07:14:04;;;;;;;8.82;3.45;;;;;;;;;;5051970;28;20051;-88
2022/05/22 07:16:31;;;;;;;8.63;3.60;;;;;;;;;;5035372;28;20606;-87
2022/05/22 07:18:57;;;;;;;8.95;3.20;;;;;;;;;;5051462;28;20040;-89
2022/05/22 07:21:24;;;;;;;10.68;3.30;;;;;;;;;;5034589;28;20107;-92
2022/05/22 07:23:50;;;;;;;7.43;3.05;;;;;;;;;;5037223;28;20037;-89
2022/05/22 07:26:19;;;;;;;7.35;2.65;;;;;;;;;;5035348;28;20048;-85
2022/05/22 07:28:45;;;;;;;8.27;2.85;;;;;;;;;;5036490;28;20041;-89
2022/05/22 07:31:15;;;;;;;8.23;2.88;;;;;;;;;;5033949;28;20041;-88
2022/05/22 07:33:41;;;;;;;;;;;;;;;;;;5035490;28;20202;-88
2022/05/22 07:36:07;;;;;;;8.63;3.30;;;;;;;;;;5033873;28;19999;-86
2022/05/22 07:38:33;;;;;;;7.68;2.97;;;;;;;;;;5034453;28;20120;-89
2022/05/22 07:40:59;;;;;;;7.78;2.95;;;;;;;;;;5034565;28;20199;-88
2022/05/22 07:43:25;;;;;;;8.15;3.28;;;;;;;;;;5034100;28;20049;-86
2022/05/22 07:45:51;;;;;;;10.63;3.17;;;;;;;;;;5037008;28;20094;-89
2022/05/22 07:48:18;;;;;;;8.68;2.97;;;;;;;;;;5036510;28;20045;-89
2022/05/22 07:50:44;;;;;;;9.65;3.70;;;;;;;;;;5056420;28;20037;-89
2022/05/22 07:53:10;;;;;;;8.30;2.40;;;;;;;;;;5033857;28;20095;-89
2022/05/22 07:55:36;;;;;;;8.23;2.67;;;;;;;;;;5034439;28;20094;-89
2022/05/22 07:58:02;;;;;;;7.03;2.55;;;;;;;;;;5035321;28;20037;-90
2022/05/22 08:00:28;;;;;;;6.03;2.63;;;;;;;;;;5036550;28;20080;-85
2022/05/22 08:02:54;;;;;;;7.53;2.20;;;;;;;;;;5037077;28;20041;-89
2022/05/22 08:05:20;;;;;;;8.00;2.90;;;;;;;;;;5038115;28;20063;-90
2022/05/22 08:07:46;;;;;;;5.10;2.17;;;;;;;;;;5036589;28;20087;-87
2022/05/22 08:10:13;;;;;;;6.10;2.50;;;;;;;;;;5033661;28;20061;-87
2022/05/22 08:12:44;;;;;;;6.32;2.00;;;;;;;;;;5035215;28;20370;-86
2022/05/22 08:15:12;;;;;;;7.70;2.33;;;;;;;;;;5034170;28;20460;-93
2022/05/22 08:17:38;;;;;;;7.30;2.85;;;;;;;;;;5034919;28;20048;-89
2022/05/22 08:20:05;;;;;;;8.38;2.83;;;;;;;;;;5034297;28;20040;-85
2022/05/22 08:22:31;;;;;;;6.70;2.33;;;;;;;;;;5033716;28;20396;-87
2022/05/22 08:24:57;;;;;;;6.20;2.92;;;;;;;;;;5037729;28;20062;-87
2022/05/22 08:27:23;;;;;;;5.80;2.55;;;;;;;;;;5034755;28;20057;-89
2022/05/22 08:29:49;;;;;;;6.63;2.75;;;;;;;;;;5040348;28;20048;-89
2022/05/22 08:32:15;;;;;;;6.25;2.35;;;;;;;;;;5044715;28;20534;-89
2022/05/22 08:34:41;;;;;;;6.25;2.97;;;;;;;;;;5045461;28;20041;-89
2022/05/22 08:37:07;;;;;;;7.57;2.70;;;;;;;;;;5074955;28;20041;-88
2022/05/22 08:39:33;;;;;;;6.75;2.33;;;;;;;;;;5035779;28;20084;-87
2022/05/22 08:41:59;;;;;;;4.43;2.55;;;;;;;;;;5033530;28;20041;-84
2022/05/22 08:44:28;;;;;;;5.05;2.33;;;;;;;;;;5033804;28;20033;-88
2022/05/22 08:47:11;;;;;;;5.05;2.58;;;;;;;;;;5036893;28;20028;-87
2022/05/22 08:49:40;;;;;;;6.53;2.40;;;;;;;;;;5044935;28;20072;-88
2022/05/22 08:52:18;;;;;;;8.20;2.70;;;;;;;;;;5056458;28;20063;-89
2022/05/22 08:54:50;;;;;;;6.97;2.67;;;;;;;;;;5040568;28;20033;-87
2022/05/22 09:00:13;;;;;;;7.15;2.63;;;;;;;;;;5051528;28;20135;-85
2022/05/22 09:03:09;;;;;;;9.65;3.30;;;;;;;;;;5034403;28;20082;-86
2022/05/22 09:05:35;;;;;;;6.10;2.53;;;;;;;;;;5024112;28;20049;-81
2022/05/22 09:08:01;;;;;;;6.00;2.42;;;;;;;;;;5038039;28;20431;-87
2022/05/22 09:10:48;;;;;;;6.43;2.38;;;;;;;;;;5040038;28;20045;-87
2022/05/22 09:13:14;;;;;;;6.68;2.60;;;;;;;;;;5042454;28;20051;-85
2022/05/22 09:15:49;;;;;;;6.18;2.67;;;;;;;;;;5041490;28;20051;-87
2022/05/22 09:18:24;;;;;;;6.78;2.78;;;;;;;;;;5042368;28;20101;-87
2022/05/22 09:20:58;;;;;;;6.70;2.53;;;;;;;;;;5056553;28;20136;-88
2022/05/22 09:23:53;;;;;;;7.78;2.70;;;;;;;;;;5041968;28;20059;-87
2022/05/22 09:26:38;;;;;;;7.13;2.55;;;;;;;;;;5044736;28;20478;-88
2022/05/22 09:29:24;;;;;;;6.07;2.38;;;;;;;;;;5041210;28;20051;-84
2022/05/22 09:32:09;;;;;;;6.13;2.30;;;;;;;;;;5045998;28;20052;-86
2022/05/22 09:34:41;;;;;;;7.72;2.58;;;;;;;;;;5039757;28;20044;-87
2022/05/22 09:37:32;;;;;;;5.30;2.20;;;;;;;;;;5041870;28;20645;-88
2022/05/22 09:40:16;;;;;;;6.93;2.40;;;;;;;;;;5045168;28;20041;-88
2022/05/22 09:42:58;;;;;;;6.00;2.38;;;;;;;;;;5058733;28;20038;-86
2022/05/22 09:45:40;;;;;;;7.85;2.67;;;;;;;;;;5039665;28;20036;-87
2022/05/22 09:48:09;;;;;;;7.30;2.40;;;;;;;;;;5060921;28;20456;-86
2022/05/22 09:50:40;;;;;;;4.25;2.00;;;;;;;;;;5040832;28;20078;-87
2022/05/22 09:53:09;;;;;;;6.22;2.25;;;;;;;;;;5041646;28;20037;-86
2022/05/22 09:55:42;;;;;;;6.78;2.00;;;;;;;;;;5057343;28;20082;-87
2022/05/22 09:58:11;;;;;;;7.45;2.58;;;;;;;;;;5057720;28;20032;-87
2022/05/22 10:00:49;;;;;;;8.75;3.20;;;;;;;;;;5041724;28;20076;-84
2022/05/22 10:03:25;;;;;;;5.38;2.30;;;;;;;;;;5039388;28;20036;-86
2022/05/22 10:06:10;;;;;;;6.03;2.45;;;;;;;;;;5040560;28;20096;-88
2022/05/22 10:08:42;;;;;;;7.30;2.45;;;;;;;;;;5055444;28;20052;-86
2022/05/22 10:11:13;;;;;;;5.82;2.78;;;;;;;;;;5040790;28;20055;-86
2022/05/22 10:13:48;;;;;;;7.43;2.58;;;;;;;;;;5041741;28;20043;-84
2022/05/22 10:16:24;;;;;;;4.25;2.30;;;;;;;;;;5040848;28;20080;-87
2022/05/22 10:19:09;;;;;;;5.80;2.03;;;;;;;;;;5039638;28;20032;-87
2022/05/22 10:21:53;;;;;;;5.35;2.00;;;;;;;;;;5040839;28;20140;-85
2022/05/22 10:24:19;;;;;;;4.40;1.92;;;;;;;;;;5041128;28;20044;-86
2022/05/22 10:26:54;;;;;;;3.95;1.80;;;;;;;;;;5040971;28;20083;-84
2022/05/22 10:29:38;;;;;;;6.38;1.80;;;;;;;;;;5040298;28;20040;-86
2022/05/22 10:32:08;;;;;;;6.30;2.20;;;;;;;;;;5038518;28;20037;-84
2022/05/22 10:34:40;;;;;;;7.95;1.95;;;;;;;;;;5038060;28;20522;-85
2022/05/22 10:37:13;;;;;;;7.50;2.42;;;;;;;;;;5038378;28;20404;-87
2022/05/22 10:39:39;;;;;;;6.38;1.80;;;;;;;;;;5038469;28;20040;-86
2022/05/22 10:43:06;;;;;;;6.75;2.20;;;;;;;;;;5038154;28;20040;-85
2022/05/22 10:45:13;;;;;;;4.97;2.03;;;;;;;;;;5044119;28;20043;-86
2022/05/22 10:47:39;;;;;;;5.25;2.20;;;;;;;;;;5037870;28;20040;-85
2022/05/22 10:50:17;;;;;;;6.75;1.83;;;;;;;;;;5038092;28;20086;-85
2022/05/22 10:52:43;;;;;;;6.03;1.88;;;;;;;;;;5038378;28;20093;-85
2022/05/22 10:55:20;;;;;;;7.25;2.05;;;;;;;;;;5038266;28;20036;-84
2022/05/22 10:57:54;;;;;;;3.45;1.80;;;;;;;;;;5038079;28;20535;-86
2022/05/22 11:00:20;;;;;;;3.60;1.30;;;;;;;;;;5038029;28;20048;-88
2022/05/22 11:02:46;;;;;;;4.63;2.63;;;;;;;;;;5038012;28;20040;-86
2022/05/22 11:05:20;;;;;;;7.65;2.58;;;;;;;;;;5037743;28;20040;-86
2022/05/22 11:07:47;;;;;;;5.70;1.80;;;;;;;;;;5040708;28;20396;-89
2022/05/22 11:10:18;;;;;;;7.25;2.60;;;;;;;;;;5073911;28;20063;-87
2022/05/22 11:12:44;;;;;;;;;;;;;;;;;;5038676;28;20037;-85
2022/05/22 11:15:25;;;;;;;7.20;2.00;;;;;;;;;;5039677;28;19939;-86
2022/05/22 11:18:01;;;;;;;7.55;2.22;;;;;;;;;;5037953;28;20665;-86
2022/05/22 11:20:28;;;;;;;7.55;1.95;;;;;;;;;;5054059;28;20041;-85
2022/05/22 11:22:59;;;;;;;4.32;1.63;;;;;;;;;;5037505;28;20468;-83
2022/05/22 11:25:29;;;;;;;5.75;2.10;;;;;;;;;;5037816;28;20052;-86
2022/05/22 11:28:13;;;;;;;5.25;1.90;;;;;;;;;;5053255;28;20135;-85
2022/05/22 11:30:51;;;;;;;3.00;1.30;;;;;;;;;;5037531;28;20485;-87
2022/05/22 11:33:20;;;;;;;8.60;2.20;;;;;;;;;;5038247;28;20419;-87
2022/05/22 11:36:06;;;;;;;4.75;1.70;;;;;;;;;;5037838;28;20048;-85
2022/05/22 11:38:51;;;;;;;6.65;2.20;;;;;;;;;;5036760;28;20070;-85
2022/05/22 11:41:21;;;;;;;6.60;2.25;;;;;;;;;;5037627;28;20135;-85
2022/05/22 11:44:14;;;;;;;4.55;2.00;;;;;;;;;;5037333;28;20472;-87
2022/05/22 11:46:58;;;;;;;4.45;1.95;;;;;;;;;;5015041;28;20059;-84
2022/05/22 11:49:54;;;;;;;6.10;2.10;;;;;;;;;;5053906;28;20044;-85
2022/05/22 11:55:16;;;;;;;5.60;2.30;;;;;;;;;;5054358;28;20559;-87
2022/05/22 11:57:48;;;;;;;6.57;2.38;;;;;;;;;;5039459;28;20043;-85
2022/05/22 12:00:17;;;;;;;3.95;2.30;;;;;;;;;;5038473;28;20036;-84
2022/05/22 12:02:51;;;;;;;4.80;2.00;;;;;;;;;;5037819;28;20080;-85
2022/05/22 12:05:17;;;;;;;4.93;1.90;;;;;;;;;;5038573;28;20352;-86
2022/05/22 12:07:49;;;;;;;5.72;2.30;;;;;;;;;;5041460;28;20480;-85
2022/05/22 12:10:22;;;;;;;4.93;2.13;;;;;;;;;;5036859;28;20076;-86
2022/05/22 12:13:13;;;;;;;2.90;1.90;;;;;;;;;;5036893;28;20041;-85
2022/05/22 12:15:45;;;;;;;6.45;1.85;;;;;;;;;;5031020;28;20080;-84
2022/05/22 12:18:29;;;;;;;5.35;1.90;;;;;;;;;;5037674;28;20044;-85
2022/05/22 12:21:02;;;;;;;4.45;1.27;;;;;;;;;;5036918;28;20051;-85
2022/05/22 12:23:30;;;;;;;4.30;1.45;;;;;;;;;;5037372;28;20040;-85
2022/05/22 12:26:01;;;;;;;4.57;1.52;;;;;;;;;;5036853;28;20044;-84
2022/05/22 12:28:27;;;;;;;3.35;1.40;;;;;;;;;;5036716;28;20047;-84
2022/05/22 12:30:55;;;;;;;4.85;2.05;;;;;;;;;;5036723;28;20033;-86
2022/05/22 12:33:23;;;;;;;3.35;1.30;;;;;;;;;;5037179;28;20166;-85
2022/05/22 12:35:51;;;;;;;6.07;2.00;;;;;;;;;;5036993;28;20043;-85
2022/05/22 12:38:17;;;;;;;4.10;1.75;;;;;;;;;;5037688;28;20596;-85
2022/05/22 12:40:52;;;;;;;4.20;1.73;;;;;;;;;;5057359;28;20040;-85
2022/05/22 12:43:19;;;;;;;4.03;2.00;;;;;;;;;;5040654;28;20403;-85
2022/05/22 12:45:59;;;;;;;2.63;1.30;;;;;;;;;;5040551;28;20492;-85
2022/05/22 12:48:37;;;;;;;4.18;1.73;;;;;;;;;;5040932;28;20044;-85
2022/05/22 12:51:10;;;;;;;4.93;1.30;;;;;;;;;;5040175;28;20503;-85
2022/05/22 12:53:37;;;;;;;1.73;1.27;;;;;;;;;;5040035;28;20458;-85
2022/05/22 12:56:21;;;;;;;6.80;1.40;;;;;;;;;;5056808;28;20046;-84
2022/05/22 12:58:56;;;;;;;5.43;2.05;;;;;;;;;;5040161;28;20427;-85
2022/05/22 13:01:27;;;;;;;3.88;1.67;;;;;;;;;;5040145;28;20043;-84
2022/05/22 13:03:53;;;;;;;;;;;;;;;;;;5057458;28;20519;-84
2022/05/22 13:06:21;;;;;;;3.58;1.90;;;;;;;;;;5039640;28;19916;-85
2022/05/22 13:09:01;;;;;;;5.88;1.25;;;;;;;;;;5039984;28;20929;-85
2022/05/22 13:11:38;;;;;;;8.35;1.25;;;;;;;;;;5039762;28;20052;-84
2022/05/22 13:14:04;;;;;;;5.20;1.70;;;;;;;;;;5041038;28;20032;-85
2022/05/22 13:16:33;;;;;;;3.42;1.73;;;;;;;;;;5039752;28;20123;-84
2022/05/22 13:19:00;;;;;;;4.68;1.60;;;;;;;;;;5040280;28;20040;-84
2022/05/22 13:21:39;;;;;;;3.92;1.52;;;;;;;;;;5039756;28;20040;-84
2022/05/22 13:24:18;;;;;;;1.48;1.00;;;;;;;;;;5039850;28;20071;-84
2022/05/22 13:27:04;;;;;;;2.97;1.25;;;;;;;;;;5040989;28;20048;-85
2022/05/22 13:29:50;;;;;;;3.65;1.15;;;;;;;;;;5039729;28;20037;-84
2022/05/22 13:32:19;;;;;;;3.80;1.35;;;;;;;;;;5026316;28;20135;-83
2022/05/22 13:34:48;;;;;;;4.88;1.40;;;;;;;;;;5056254;28;20052;-86
2022/05/22 13:37:22;;;;;;;6.40;2.10;;;;;;;;;;5039649;28;20094;-86
2022/05/22 13:39:54;;;;;;;3.85;1.58;;;;;;;;;;5039568;28;20048;-83
2022/05/22 13:42:40;;;;;;;5.60;1.50;;;;;;;;;;5039792;28;20384;-85
2022/05/22 13:45:12;;;;;;;4.75;1.85;;;;;;;;;;5039299;28;20127;-85
2022/05/22 13:47:41;;;;;;;4.88;1.52;;;;;;;;;;5039447;28;20135;-86
2022/05/22 13:53:06;;;;;;;5.63;1.80;;;;;;;;;;5055964;28;20507;-84
2022/05/22 13:55:32;;;;;;;5.22;1.92;;;;;;;;;;5039195;28;20032;-84
2022/05/22 13:58:13;;;;;;;4.90;1.73;;;;;;;;;;5055686;28;20094;-85
2022/05/22 14:00:43;;;;;;;5.05;1.67;;;;;;;;;;5038956;28;20047;-86
2022/05/22 14:03:34;;;;;;;4.97;2.03;;;;;;;;;;5039275;28;20048;-84
2022/05/22 14:06:05;;;;;;;4.50;1.90;;;;;;;;;;5039117;28;20373;-86
2022/05/22 14:08:36;;;;;;;4.05;1.58;;;;;;;;;;5038949;28;20060;-85
2022/05/22 14:11:08;;;;;;;4.47;2.03;;;;;;;;;;5055262;28;20405;-84
2022/05/22 14:13:36;;;;;;;5.18;2.10;;;;;;;;;;5039041;28;20040;-82
2022/05/22 14:16:03;;;;;;;5.63;1.90;;;;;;;;;;5038644;28;20509;-84
2022/05/22 14:18:30;;;;;;;5.18;1.45;;;;;;;;;;5038688;28;20419;-84
2022/05/22 14:20:59;;;;;;;5.15;1.63;;;;;;;;;;5038797;28;20041;-82
2022/05/22 14:23:29;;;;;;;2.88;1.58;;;;;;;;;;5039368;28;20048;-84
2022/05/22 14:25:57;;;;;;;5.80;2.20;;;;;;;;;;5038685;28;20044;-84
2022/05/22 14:28:31;;;;;;;2.47;1.25;;;;;;;;;;5038653;28;20420;-84
2022/05/22 14:30:57;;;;;;;5.45;2.08;;;;;;;;;;5055630;28;20131;-85
2022/05/22 14:33:23;;;;;;;5.50;1.90;;;;;;;;;;5038992;28;20036;-84
2022/05/22 14:35:51;;;;;;;3.70;1.10;;;;;;;;;;5038472;28;20036;-84
2022/05/22 14:38:23;;;;;;;3.88;1.63;;;;;;;;;;5038544;28;20040;-84
2022/05/22 14:40:57;;;;;;;4.07;1.00;;;;;;;;;;5038305;28;20159;-85
2022/05/22 14:43:41;;;;;;;3.72;1.52;;;;;;;;;;5038323;28;20093;-86
2022/05/22 14:46:09;;;;;;;3.58;1.73;;;;;;;;;;5038308;28;20040;-85
2022/05/22 14:48:40;;;;;;;5.57;1.60;;;;;;;;;;5038290;28;20042;-84
2022/05/22 14:51:18;;;;;;;4.60;1.45;;;;;;;;;;5038279;28;20040;-84
2022/05/22 14:53:45;;;;;;;2.50;1.33;;;;;;;;;;5038309;28;20414;-84
2022/05/22 14:56:17;;;;;;;4.00;1.60;;;;;;;;;;5038925;28;20040;-85
2022/05/22 14:58:58;;;;;;;4.75;1.77;;;;;;;;;;5038350;28;20048;-85
2022/05/22 15:01:33;;;;;;;3.45;1.52;;;;;;;;;;5038609;28;20045;-86
2022/05/22 15:04:01;;;;;;;4.68;1.50;;;;;;;;;;5037968;28;20542;-86
2022/05/22 15:06:28;;;;;;;5.68;2.42;;;;;;;;;;5038224;28;20047;-85
2022/05/22 15:08:57;;;;;;;4.75;1.38;;;;;;;;;;5055226;28;20056;-86
2022/05/22 15:11:29;;;;;;;4.40;1.75;;;;;;;;;;5037888;28;20139;-86
2022/05/22 15:13:58;;;;;;;4.60;2.40;;;;;;;;;;5054720;28;20044;-85
2022/05/22 15:16:26;;;;;;;3.70;1.63;;;;;;;;;;5037990;28;20036;-84
2022/05/22 15:21:41;;;;;;;4.45;1.23;;;;;;;;;;5054669;28;20404;-85
2022/05/22 15:26:56;;;;;;;3.30;1.40;;;;;;;;;;5054824;28;20053;-88
2022/05/22 15:29:31;;;;;;;4.40;1.42;;;;;;;;;;5038100;28;20048;-84